Pagrindinis puslapis
METAR-TAF:

METAR-TAF

Oro uostai :

Ringkiobingas-Skjern, Danija

platuma: 56-00N, ilguma: 008-21E, Aukštis: 5 m

Dabartinis oras

Ataskaita buvo paskelbta 43 minutes, ne 20:20 UTC
Vėjas 6 kt iš Pietryčių
Temperatūra 12°C
Drėgmė 100%
Slėgis 1005 hPa
Matomumas 10 km arba daugiau

METAR: EKVJ 162020Z AUTO 14006KT 9999 FEW031/// SCT069/// 12/12 Q1005 TEST

Laikas: 23:03 (21:03 UTC)


TAF: trūkstamas

Orai ataskaitas ir orų prognozės (METAR, TAF).

turimą stotys yra geltonos ir raudonos taškus žemėlapyje.

Perkelti pele per norėdami pamatyti stoties vardą.

Tada spustelėkite, norėdami matyti oro stebėjimo ir prognozės.

Norėdami pakeisti žemėlapį: spustelėkite ant žalios mygtukų su juodo kryžiaus žemyn,; žalią mygtuką su brūkšneliu, jei norite nutolinti; arba žalių rodyklių gretimoms žemėlapius.


METAR-TAF: